Time;durP1;ratioP1;P1;durP2;ratioP2;P2;SDS_P1;SDS_P2;PMS_P1;PMS_P2;Temp;Humidity;BMP_temperature;BMP_pressure;BME280_temperature;BME280_humidity;BME280_pressure;Samples;Min_cycle;Max_cycle;Signal;HPM_P1;HPM_P2
2022/08/15 00:00:18;;;;;;;20.80;16.35;;;;;;;19.96;73.21;99793.03;1713840;82;21012;-73
2022/08/15 00:02:47;;;;;;;19.80;17.05;;;;;;;19.95;73.30;99795.44;1730688;81;21042;-73
2022/08/15 00:05:17;;;;;;;21.70;17.27;;;;;;;19.91;73.38;99799.17;1712160;82;21004;-73
2022/08/15 00:07:43;;;;;;;21.90;16.90;;;;;;;19.89;73.49;99800.48;1711343;82;21015;-73
2022/08/15 00:10:09;;;;;;;21.52;16.60;;;;;;;19.87;73.59;99791.80;1712129;82;20922;-73
2022/08/15 00:12:35;;;;;;;18.90;16.77;;;;;;;19.88;73.67;99786.66;1724300;82;21608;-73
2022/08/15 00:15:09;;;;;;;20.17;17.27;;;;;;;19.87;73.75;99783.69;1718729;82;21681;-73
2022/08/15 00:17:36;;;;;;;17.70;15.80;;;;;;;19.84;73.85;99786.89;1730938;82;21003;-73
2022/08/15 00:20:04;;;;;;;19.75;16.42;;;;;;;19.69;73.90;99795.56;1719843;82;21023;-73
2022/08/15 00:22:30;;;;;;;18.05;16.15;;;;;;;19.56;74.03;99791.81;1720115;82;21027;-73
2022/08/15 00:24:57;;;;;;;20.45;16.70;;;;;;;19.52;74.23;99786.59;1722088;81;21773;-73
2022/08/15 00:27:24;;;;;;;17.82;14.98;;;;;;;19.49;74.31;99786.27;1720080;81;21090;-73
2022/08/15 00:29:51;;;;;;;23.07;18.10;;;;;;;19.49;74.41;99786.27;1720603;82;21023;-73
2022/08/15 00:32:23;;;;;;;19.35;17.12;;;;;;;19.50;74.54;99787.87;1720237;82;21514;-73
2022/08/15 00:34:47;;;;;;;20.75;17.42;;;;;;;19.51;74.61;99788.17;1707642;82;21008;-73
2022/08/15 00:37:13;;;;;;;21.05;16.85;;;;;;;19.51;74.70;99784.12;1708057;83;21565;-73
2022/08/15 00:39:39;;;;;;;18.67;16.70;;;;;;;19.50;74.78;99782.47;1727770;83;20991;-73
2022/08/15 00:42:07;;;;;;;21.23;16.93;;;;;;;19.51;74.85;99784.12;1723343;82;21065;-73
2022/08/15 00:44:45;;;;;;;20.37;16.73;;;;;;;19.47;74.95;99789.19;1743638;81;21906;-73
2022/08/15 00:47:17;;;;;;;22.27;16.87;;;;;;;19.42;75.04;99795.32;1722900;82;21818;-73
2022/08/15 00:49:43;;;;;;;21.17;16.62;;;;;;;19.37;75.18;99787.09;1730732;81;21090;-73
2022/08/15 00:52:24;;;;;;;19.40;17.00;;;;;;;19.38;75.30;99781.98;1722851;81;21011;-73
2022/08/15 00:55:00;;;;;;;18.52;16.55;;;;;;;19.40;75.36;99782.55;1738467;81;20980;-73
2022/08/15 00:57:31;;;;;;;18.55;16.55;;;;;;;19.43;75.44;99782.63;1732566;81;21015;-73
2022/08/15 01:00:00;;;;;;;19.95;17.42;;;;;;;19.40;75.50;99777.67;1732063;81;21049;-73
2022/08/15 01:02:32;;;;;;;22.05;17.77;;;;;;;19.35;75.62;99779.74;1723204;81;21154;-73
2022/08/15 01:04:59;;;;;;;26.45;18.20;;;;;;;19.37;75.71;99783.04;1726153;81;21424;-73
2022/08/15 01:07:26;;;;;;;20.65;18.40;;;;;;;19.42;75.80;99776.39;1722849;82;21026;-73
2022/08/15 01:09:52;;;;;;;24.90;18.30;;;;;;;19.48;75.84;99775.14;1723130;82;21044;-74
2022/08/15 01:12:21;;;;;;;23.47;19.00;;;;;;;19.49;75.90;99778.15;1722637;82;21013;-73
2022/08/15 01:17:33;;;;;;;20.70;18.40;;;;;;;19.56;76.04;99774.76;1838192;76;27801;-73
2022/08/15 01:20:23;;;;;;;20.40;17.87;;;;;;;19.62;76.21;99785.95;1804642;78;20935;-73
2022/08/15 01:23:04;;;;;;;21.07;18.10;;;;;;;19.62;76.31;99791.36;1816245;78;21471;-74
2022/08/15 01:25:48;;;;;;;26.45;18.48;;;;;;;19.59;76.40;99796.73;1777898;78;20923;-73
2022/08/15 01:28:23;;;;;;;23.00;19.75;;;;;;;19.56;76.49;99790.98;1826574;78;21438;-73
2022/08/15 01:30:58;;;;;;;24.35;19.32;;;;;;;19.55;76.52;99782.58;1826339;78;21042;-73
2022/08/15 01:33:26;;;;;;;24.32;20.45;;;;;;;19.54;76.55;99778.22;1826925;77;20986;-73
2022/08/15 01:35:52;;;;;;;24.65;21.25;;;;;;;19.54;76.62;99780.92;1826461;78;21119;-73
2022/08/15 01:38:35;;;;;;;25.35;21.05;;;;;;;19.54;76.66;99779.58;1825510;78;21582;-73
2022/08/15 01:41:26;;;;;;;25.12;20.82;;;;;;;19.54;76.70;99775.52;1826847;78;21517;-73
2022/08/15 01:44:31;;;;;;;22.60;19.23;;;;;;;19.51;76.72;99777.36;1826177;78;21836;-73
2022/08/15 01:47:18;;;;;;;28.12;20.85;;;;;;;19.46;76.76;99771.87;1790170;79;20967;-73
2022/08/15 01:50:07;;;;;;;23.32;19.32;;;;;;;19.41;76.83;99772.06;1769870;80;21983;-73
2022/08/15 01:52:36;;;;;;;26.80;20.92;;;;;;;19.39;76.89;99776.84;1779562;79;21007;-73
2022/08/15 01:55:04;;;;;;;25.37;21.07;;;;;;;19.35;76.92;99775.69;1789221;79;20979;-73
2022/08/15 01:57:31;;;;;;;27.05;20.32;;;;;;;19.35;77.00;99772.19;1803194;78;21025;-73
2022/08/15 01:59:58;;;;;;;24.65;20.48;;;;;;;19.36;77.04;99765.69;1770523;80;21038;-73
2022/08/15 02:02:25;;;;;;;27.87;21.70;;;;;;;19.34;77.07;99766.48;1796216;78;21062;-73
2022/08/15 02:04:51;;;;;;;27.22;21.02;;;;;;;19.31;77.12;99763.73;1799490;78;21000;-73
2022/08/15 02:07:24;;;;;;;26.77;21.52;;;;;;;19.25;77.15;99764.68;1800687;78;21746;-73
2022/08/15 02:09:50;;;;;;;28.17;20.65;;;;;;;19.16;77.23;99760.73;1776840;79;21002;-73
2022/08/15 02:12:18;;;;;;;27.82;22.20;;;;;;;19.12;77.31;99760.09;1803007;78;21032;-73
2022/08/15 02:14:44;;;;;;;29.63;21.52;;;;;;;19.09;77.40;99751.13;1774837;79;21490;-73
2022/08/15 02:17:11;;;;;;;30.32;22.02;;;;;;;19.11;77.46;99749.81;1801130;78;20961;-73
2022/08/15 02:19:39;;;;;;;28.65;21.85;;;;;;;19.09;77.50;99749.25;1792008;78;20974;-73
2022/08/15 02:22:05;;;;;;;26.93;21.15;;;;;;;19.03;77.55;99751.57;1790531;78;21025;-73
2022/08/15 02:24:31;;;;;;;25.70;21.37;;;;;;;18.97;77.61;99748.45;1792432;80;21581;-73
2022/08/15 02:26:57;;;;;;;28.27;23.40;;;;;;;18.94;77.72;99743.53;1792559;79;21888;-73
2022/08/15 02:29:26;;;;;;;30.37;22.98;;;;;;;18.90;77.79;99746.42;1784419;80;21009;-73
2022/08/15 02:31:59;;;;;;;27.77;21.15;;;;;;;18.89;77.86;99743.45;1792807;80;21050;-73
2022/08/15 02:34:25;;;;;;;24.70;21.42;;;;;;;18.83;77.94;99743.86;1785968;80;21041;-73
2022/08/15 02:36:52;;;;;;;31.37;24.20;;;;;;;18.84;78.03;99737.94;1792221;80;21691;-73
2022/08/15 02:39:18;;;;;;;26.93;20.77;;;;;;;18.83;78.11;99742.52;1801183;78;21948;-73
2022/08/15 02:41:49;;;;;;;28.57;23.20;;;;;;;18.79;78.16;99743.22;1780083;78;21016;-73
2022/08/15 02:44:16;;;;;;;27.95;23.02;;;;;;;18.72;78.22;99742.53;1801672;78;20989;-73
2022/08/15 02:46:43;;;;;;;29.48;22.80;;;;;;;18.69;78.33;99740.31;1793871;78;21111;-73
2022/08/15 02:49:12;;;;;;;26.87;22.98;;;;;;;18.67;78.40;99745.14;1818497;78;20975;-73
2022/08/15 02:51:39;;;;;;;30.97;23.20;;;;;;;18.64;78.45;99744.27;1808589;78;21041;-73
2022/08/15 02:54:06;;;;;;;28.55;23.22;;;;;;;18.62;78.54;99742.32;1787126;78;21455;-73
2022/08/15 02:56:32;;;;;;;28.00;23.12;;;;;;;18.63;78.62;99739.92;1808317;78;21486;-73
2022/08/15 02:58:58;;;;;;;28.92;23.27;;;;;;;18.66;78.67;99739.45;1800821;78;21100;-73
2022/08/15 03:01:26;;;;;;;27.40;24.45;;;;;;;18.66;78.74;99740.80;1814158;78;21066;-73
2022/08/15 03:03:53;;;;;;;31.40;23.98;;;;;;;18.65;78.83;99743.19;1799168;78;21542;-73
2022/08/15 03:06:24;;;;;;;29.02;24.05;;;;;;;18.65;78.90;99740.49;1803470;78;20979;-73
2022/08/15 03:08:50;;;;;;;31.52;22.90;;;;;;;18.67;78.98;99743.80;1792471;78;21061;-73
2022/08/15 03:11:16;;;;;;;29.32;24.18;;;;;;;18.63;79.01;99746.67;1794082;78;20991;-73
2022/08/15 03:13:42;;;;;;;27.95;23.77;;;;;;;18.64;79.15;99748.33;1814305;78;21468;-73
2022/08/15 03:16:10;;;;;;;31.52;24.18;;;;;;;18.70;79.24;99743.31;1796390;78;21103;-73
2022/08/15 03:18:36;;;;;;;33.02;25.17;;;;;;;18.71;79.30;99742.27;1806179;78;21421;-73
2022/08/15 03:21:09;;;;;;;28.70;22.90;;;;;;;18.72;79.34;99739.83;1789666;79;20983;-73
2022/08/15 03:23:34;;;;;;;31.68;25.72;;;;;;;18.74;79.42;99739.08;1773595;78;20978;-73
2022/08/15 03:26:01;;;;;;;30.85;24.20;;;;;;;18.73;79.48;99740.95;1778743;79;21031;-73
2022/08/15 03:28:31;;;;;;;31.57;25.62;;;;;;;18.68;79.53;99738.70;1771323;79;21188;-73
2022/08/15 03:31:03;;;;;;;29.67;24.98;;;;;;;18.67;79.63;99734.34;1771181;79;20979;-73
2022/08/15 03:33:31;;;;;;;31.15;26.15;;;;;;;18.68;79.69;99728.69;1802744;78;20985;-73
2022/08/15 03:35:57;;;;;;;33.75;26.85;;;;;;;18.67;79.74;99723.53;1743026;78;21014;-73
2022/08/15 03:38:23;;;;;;;30.82;26.12;;;;;;;18.64;79.79;99718.62;1785897;79;21073;-73
2022/08/15 03:40:49;;;;;;;31.97;27.30;;;;;;;18.65;79.86;99718.36;1777432;78;21172;-73
2022/08/15 03:43:21;;;;;;;34.20;27.70;;;;;;;18.66;79.92;99719.19;1804920;78;21613;-73
2022/08/15 03:45:51;;;;;;;31.17;25.88;;;;;;;18.63;79.97;99712.91;1791818;80;20967;-73
2022/08/15 03:48:19;;;;;;;30.08;26.02;;;;;;;18.59;80.02;99713.09;1792155;78;21009;-73
2022/08/15 03:50:46;;;;;;;34.00;28.35;;;;;;;18.57;80.07;99709.83;1765378;79;21005;-73
2022/08/15 03:53:12;;;;;;;33.05;26.73;;;;;;;18.57;80.15;99697.67;1807585;78;21171;-73
2022/08/15 03:55:40;;;;;;;33.30;27.05;;;;;;;18.59;80.19;99713.09;1813948;78;20944;-73
2022/08/15 03:58:06;;;;;;;28.98;24.85;;;;;;;18.58;80.26;99715.53;1806622;78;21058;-73
2022/08/15 04:00:41;;;;;;;31.73;26.93;;;;;;;18.57;80.31;99706.59;1789967;78;21570;-73
2022/08/15 04:03:15;;;;;;;33.50;28.17;;;;;;;18.61;80.36;99711.82;1817412;78;20976;-72
2022/08/15 04:05:43;;;;;;;31.77;25.92;;;;;;;18.66;80.40;99729.98;1807820;78;21141;-73
2022/08/15 04:08:10;;;;;;;35.05;27.15;;;;;;;18.67;80.48;99715.44;1779619;78;20999;-73
2022/08/15 04:10:37;;;;;;;37.00;28.17;;;;;;;18.70;80.53;99713.08;1770847;78;21026;-73
2022/08/15 04:13:04;;;;;;;41.15;28.15;;;;;;;18.78;80.56;99707.30;1796753;77;20975;-73
2022/08/15 04:15:30;;;;;;;49.58;26.07;;;;;;;18.86;80.60;99707.42;1819254;78;21010;-73
2022/08/15 04:17:56;;;;;;;30.70;26.27;;;;;;;18.91;80.64;99699.43;1785548;78;21135;-73
2022/08/15 04:20:23;;;;;;;31.68;26.45;;;;;;;18.98;80.66;99702.81;1815566;78;20959;-73
2022/08/15 04:22:49;;;;;;;32.10;26.40;;;;;;;19.17;80.83;99699.39;1798360;78;21094;-73
2022/08/15 04:25:29;;;;;;;29.63;25.27;;;;;;;19.52;80.92;99708.16;1782325;78;21064;-73
2022/08/15 04:27:58;;;;;;;33.28;26.05;;;;;;;20.02;80.94;99709.47;1794695;78;21446;-73
2022/08/15 04:30:27;;;;;;;32.13;25.30;;;;;;;20.64;80.64;99703.33;1779845;78;21151;-73
2022/08/15 04:32:56;;;;;;;31.73;26.05;;;;;;;21.15;80.29;99693.89;1785770;79;21004;-73
2022/08/15 04:35:22;;;;;;;28.27;24.77;;;;;;;21.67;80.02;99700.08;1784769;79;21017;-73
2022/08/15 04:37:48;;;;;;;28.42;23.85;;;;;;;22.15;79.49;99698.55;1786961;79;21050;-73
2022/08/15 04:40:14;;;;;;;27.95;24.50;;;;;;;22.44;78.90;99694.08;1790344;78;21544;-73
2022/08/15 04:42:53;;;;;;;28.75;24.00;;;;;;;22.71;78.39;99698.84;1793696;78;22677;-73
2022/08/15 04:45:22;;;;;;;29.00;23.67;;;;;;;23.14;77.97;99705.78;1792437;80;21343;-80
2022/08/15 04:47:50;;;;;;;27.40;24.50;;;;;;;23.37;77.15;99700.64;1807541;78;20988;-80
2022/08/15 04:50:16;;;;;;;28.00;23.25;;;;;;;23.57;76.42;99699.89;1795613;78;20975;-80
2022/08/15 04:52:48;;;;;;;26.97;24.23;;;;;;;23.52;75.49;99696.33;1781157;79;21414;-80
2022/08/15 04:55:15;;;;;;;29.10;24.75;;;;;;;23.10;74.74;99694.62;1813339;78;21718;-80
2022/08/15 04:57:41;;;;;;;27.13;23.62;;;;;;;23.21;75.03;99690.83;1786045;80;21119;-73
2022/08/15 05:00:10;;;;;;;28.73;22.95;;;;;;;23.73;74.74;99691.16;1811629;78;20938;-73
2022/08/15 05:02:37;;;;;;;29.48;22.67;;;;;;;24.06;73.82;99693.31;1765543;79;20905;-73
2022/08/15 05:05:05;;;;;;;24.72;22.10;;;;;;;24.41;72.61;99689.70;1794646;78;21092;-73
2022/08/15 05:07:31;;;;;;;24.90;22.20;;;;;;;24.38;71.79;99685.60;1808057;78;21825;-73
2022/08/15 05:09:58;;;;;;;29.77;23.27;;;;;;;24.11;71.77;99678.30;1773641;78;20922;-74
2022/08/15 05:12:24;;;;;;;24.55;21.77;;;;;;;23.84;71.86;99677.80;1789368;79;21408;-74
2022/08/15 05:14:50;;;;;;;24.60;22.05;;;;;;;23.84;71.92;99677.80;1777145;80;21065;-74
2022/08/15 05:17:16;;;;;;;27.55;22.42;;;;;;;23.73;71.76;99677.00;1802650;78;20907;-74
2022/08/15 05:19:43;;;;;;;25.90;21.23;;;;;;;23.65;71.52;99678.90;1802125;78;21836;-74
2022/08/15 05:22:09;;;;;;;27.98;22.27;;;;;;;23.72;71.42;99679.98;1795422;78;21064;-74
2022/08/15 05:24:36;;;;;;;25.12;22.35;;;;;;;23.75;71.13;99676.16;1807700;78;21076;-74
2022/08/15 05:27:04;;;;;;;23.65;21.20;;;;;;;23.80;70.82;99672.63;1801739;78;21040;-74
2022/08/15 05:29:31;;;;;;;24.20;21.70;;;;;;;23.90;70.60;99678.06;1809776;78;20997;-74
2022/08/15 05:31:58;;;;;;;23.73;21.02;;;;;;;23.90;70.24;99679.42;1818510;78;21976;-74
2022/08/15 05:34:23;;;;;;;25.82;22.60;;;;;;;23.92;70.05;99669.62;1807593;78;21001;-74
2022/08/15 05:36:50;;;;;;;24.40;21.87;;;;;;;24.21;69.95;99673.39;1760320;80;21002;-74
2022/08/15 05:39:28;;;;;;;25.37;21.68;;;;;;;24.35;69.51;99675.26;1760724;80;21058;-74
2022/08/15 05:42:22;;;;;;;23.93;21.43;;;;;;;24.33;69.21;99670.64;1734380;81;21020;-74
2022/08/15 05:45:15;;;;;;;23.27;20.45;;;;;;;24.53;68.95;99671.11;1752633;81;22549;-74
2022/08/15 05:48:12;;;;;;;23.67;21.20;;;;;;;24.71;68.54;99687.39;1757847;81;21057;-74
2022/08/15 05:50:46;;;;;;;23.75;21.30;;;;;;;24.56;68.06;99686.11;1734034;81;20990;-74
2022/08/15 05:53:39;;;;;;;22.67;20.27;;;;;;;24.06;67.77;99678.33;1740389;81;21033;-74
2022/08/15 05:56:26;;;;;;;24.30;20.65;;;;;;;23.88;67.76;99680.26;1756365;80;21020;-74
2022/08/15 05:58:57;;;;;;;22.60;20.23;;;;;;;23.82;67.74;99676.70;1742615;81;21778;-74
2022/08/15 06:01:36;;;;;;;29.12;19.75;;;;;;;23.83;67.62;99682.44;1742804;81;21033;-74
2022/08/15 06:04:27;;;;;;;22.15;19.75;;;;;;;23.77;67.55;99677.27;1742822;81;26498;-74
2022/08/15 06:06:53;;;;;;;23.42;20.90;;;;;;;23.92;67.61;99682.70;1741758;81;21507;-74
2022/08/15 06:09:40;;;;;;;22.37;19.17;;;;;;;23.96;67.55;99682.97;1743726;81;20930;-74
2022/08/15 06:12:25;;;;;;;25.68;19.45;;;;;;;23.93;67.41;99679.41;1742725;81;21840;-74
2022/08/15 06:14:53;;;;;;;21.50;19.23;;;;;;;23.88;67.34;99680.26;1742006;81;21415;-74
2022/08/15 06:17:40;;;;;;;24.47;19.77;;;;;;;23.87;67.36;99688.14;1742289;81;20998;-74
2022/08/15 06:20:07;;;;;;;22.42;19.17;;;;;;;23.95;67.27;99689.50;1750165;79;21010;-74
2022/08/15 06:23:05;;;;;;;27.20;21.17;;;;;;;24.05;67.18;99694.39;1793292;79;21025;-74
2022/08/15 06:25:42;;;;;;;21.50;19.20;;;;;;;24.23;67.17;99688.94;1765224;80;21736;-74
2022/08/15 06:28:35;;;;;;;23.12;19.48;;;;;;;24.51;67.02;99694.30;1746142;81;20971;-74
2022/08/15 06:31:18;;;;;;;26.12;19.85;;;;;;;24.71;66.86;99698.30;1793306;79;21025;-74
2022/08/15 06:33:49;;;;;;;22.95;19.65;;;;;;;24.82;66.67;99699.89;1765575;80;21424;-75
2022/08/15 06:36:27;;;;;;;21.75;19.45;;;;;;;24.76;66.42;99699.11;1765431;80;21073;-74
2022/08/15 06:39:04;;;;;;;26.02;19.87;;;;;;;24.94;66.32;99701.78;1765486;80;22643;-74
2022/08/15 06:41:42;;;;;;;21.23;19.02;;;;;;;25.11;66.02;99687.22;1793115;79;20945;-74
2022/08/15 06:44:10;;;;;;;21.57;19.07;;;;;;;25.45;65.82;99691.88;1792320;79;21594;-74
2022/08/15 06:46:37;;;;;;;23.07;19.32;;;;;;;25.62;65.59;99696.42;1766626;80;21013;-74
2022/08/15 06:49:07;;;;;;;27.15;20.35;;;;;;;25.71;65.34;99693.36;1793279;79;21549;-74
2022/08/15 06:51:34;;;;;;;23.95;19.17;;;;;;;26.11;65.14;99694.33;1793115;79;21502;-74
2022/08/15 06:54:00;;;;;;;21.65;18.30;;;;;;;26.47;64.71;99683.03;1766358;80;21522;-74
2022/08/15 06:56:35;;;;;;;21.85;18.25;;;;;;;26.69;64.32;99680.57;1793781;79;20973;-74
2022/08/15 06:59:24;;;;;;;22.05;19.17;;;;;;;27.03;64.05;99690.80;1793142;79;21443;-74
2022/08/15 07:02:36;;;;;;;19.80;17.42;;;;;;;27.39;63.61;99684.25;1790188;79;21005;-74
2022/08/15 07:05:17;;;;;;;21.42;17.92;;;;;;;27.53;63.05;99686.52;1786519;79;21787;-74
2022/08/15 07:07:52;;;;;;;21.50;16.73;;;;;;;27.57;62.33;99686.73;1779503;79;20999;-74
2022/08/15 07:10:29;;;;;;;17.17;15.40;;;;;;;27.47;61.68;99686.91;1786302;79;21005;-75
2022/08/15 07:13:10;;;;;;;19.17;16.57;;;;;;;27.33;61.16;99680.52;1792980;79;21410;-75
2022/08/15 07:16:05;;;;;;;19.05;17.05;;;;;;;27.26;60.91;99687.20;1787851;79;20902;-75
2022/08/15 07:18:47;;;;;;;18.15;16.20;;;;;;;27.17;60.50;99686.22;1757690;78;21775;-75
2022/08/15 07:21:17;;;;;;;20.15;16.62;;;;;;;27.09;60.29;99685.51;1801496;78;20949;-75
2022/08/15 07:24:09;;;;;;;18.25;16.37;;;;;;;26.97;60.06;99683.78;1782200;78;20974;-75
2022/08/15 07:26:48;;;;;;;21.17;16.30;;;;;;;26.70;59.79;99686.31;1812190;77;21009;-75
2022/08/15 07:29:31;;;;;;;17.70;15.88;;;;;;;26.49;59.73;99690.41;1797668;78;21001;-74
2022/08/15 07:32:09;;;;;;;18.67;15.98;;;;;;;26.68;59.77;99692.06;1790681;78;21831;-74
2022/08/15 07:34:36;;;;;;;17.85;15.93;;;;;;;26.87;59.58;99689.40;1799013;78;20986;-75
2022/08/15 07:37:05;;;;;;;18.23;16.35;;;;;;;27.21;59.43;99685.89;1815371;78;21005;-75
2022/08/15 07:39:38;;;;;;;18.07;15.95;;;;;;;27.63;59.21;99691.83;1807526;78;21041;-75
2022/08/15 07:42:16;;;;;;;18.50;15.83;;;;;;;27.95;58.92;99691.00;1817493;78;20994;-74
2022/08/15 07:44:53;;;;;;;17.87;15.18;;;;;;;28.06;58.31;99688.34;1795746;78;21835;-75
2022/08/15 07:47:26;;;;;;;17.25;15.35;;;;;;;27.80;57.68;99691.27;1805944;78;20982;-75
2022/08/15 07:50:10;;;;;;;18.55;16.30;;;;;;;27.77;57.38;99687.76;1807524;78;20974;-75
2022/08/15 07:52:37;;;;;;;19.15;16.00;;;;;;;27.71;57.09;99691.16;1800280;77;21488;-75
2022/08/15 07:55:14;;;;;;;18.27;16.32;;;;;;;27.78;56.90;99693.50;1805590;78;20989;-75
2022/08/15 07:57:41;;;;;;;21.42;17.27;;;;;;;27.93;56.67;99694.63;1805777;78;21767;-75
2022/08/15 08:00:21;;;;;;;19.37;16.60;;;;;;;27.86;56.30;99692.01;1811266;78;20966;-75
2022/08/15 08:03:05;;;;;;;19.45;15.93;;;;;;;27.81;56.13;99681.94;1802319;78;20985;-75
2022/08/15 08:06:11;;;;;;;19.17;16.85;;;;;;;27.74;56.04;99681.52;1816482;78;21041;-75
2022/08/15 08:08:41;;;;;;;20.97;16.40;;;;;;;27.86;55.97;99686.52;1802639;78;20946;-75
2022/08/15 08:11:16;;;;;;;18.40;16.48;;;;;;;28.03;55.97;99682.65;1811657;78;21760;-74
2022/08/15 08:14:00;;;;;;;18.70;16.27;;;;;;;28.03;55.71;99691.69;1785576;78;21382;-73
2022/08/15 08:16:58;;;;;;;20.35;16.12;;;;;;;28.13;55.78;99689.34;1803910;78;21021;-73
2022/08/15 08:19:57;;;;;;;19.80;16.10;;;;;;;28.35;55.63;99683.17;1798428;78;20997;-73
2022/08/15 08:22:29;;;;;;;19.15;15.90;;;;;;;28.67;55.43;99684.47;1804919;78;21413;-74
2022/08/15 08:25:16;;;;;;;18.48;15.58;;;;;;;28.72;55.17;99685.72;1797590;78;22511;-74
2022/08/15 08:28:13;;;;;;;17.02;15.38;;;;;;;28.73;54.90;99682.68;1779344;78;21559;-74
2022/08/15 08:30:47;;;;;;;18.10;16.23;;;;;;;28.52;54.52;99691.60;1782232;77;21777;-73
2022/08/15 08:33:40;;;;;;;20.55;15.70;;;;;;;28.36;54.43;99691.08;1802597;78;20978;-73
2022/08/15 08:36:32;;;;;;;20.50;14.63;;;;;;;28.16;54.14;99685.44;1807223;78;22203;-73
2022/08/15 08:39:19;;;;;;;17.00;14.83;;;;;;;28.00;54.07;99686.00;1797546;78;21643;-73
2022/08/15 08:42:06;;;;;;;18.62;14.47;;;;;;;27.92;54.14;99683.94;1803025;78;20913;-73
2022/08/15 08:45:07;;;;;;;16.20;14.53;;;;;;;27.87;54.21;99679.94;1818500;78;21409;-73
2022/08/15 08:47:49;;;;;;;17.27;14.43;;;;;;;28.12;54.25;99672.07;1801409;78;21021;-73
2022/08/15 08:50:40;;;;;;;17.98;13.68;;;;;;;28.08;54.13;99679.27;1809409;78;20985;-73
2022/08/15 08:53:20;;;;;;;16.32;13.95;;;;;;;28.03;54.04;99681.28;1808582;78;21454;-73
2022/08/15 08:55:53;;;;;;;16.27;13.85;;;;;;;28.05;53.94;99682.59;1796396;78;20997;-74
2022/08/15 08:58:27;;;;;;;15.78;14.13;;;;;;;28.02;54.05;99673.61;1798635;78;21052;-73
2022/08/15 09:00:55;;;;;;;15.50;13.83;;;;;;;28.29;54.05;99684.62;1808384;78;21061;-74
2022/08/15 09:03:29;;;;;;;15.28;13.68;;;;;;;28.33;53.93;99684.02;1802049;78;21537;-74
2022/08/15 09:05:58;;;;;;;16.97;13.50;;;;;;;28.43;53.90;99682.47;1797659;78;21842;-74
2022/08/15 09:08:34;;;;;;;13.80;12.40;;;;;;;28.40;53.80;99681.68;1797991;78;21474;-74
2022/08/15 09:11:11;;;;;;;16.12;13.75;;;;;;;28.47;53.74;99686.20;1781280;78;20936;-73
2022/08/15 09:13:40;;;;;;;15.15;12.85;;;;;;;28.35;53.46;99676.31;1793617;78;21048;-73
2022/08/15 09:16:23;;;;;;;15.38;12.53;;;;;;;28.12;53.32;99680.85;1794100;78;20910;-73
2022/08/15 09:19:26;;;;;;;15.98;13.40;;;;;;;27.93;53.31;99686.39;1794610;78;21994;-73
2022/08/15 09:21:52;;;;;;;14.15;12.73;;;;;;;27.97;53.51;99679.17;1815359;77;21981;-73
2022/08/15 09:24:20;;;;;;;16.67;13.25;;;;;;;28.41;53.57;99685.50;1806381;78;21527;-73
2022/08/15 09:26:51;;;;;;;14.65;12.90;;;;;;;28.60;53.24;99677.17;1784110;79;21026;-73
2022/08/15 09:29:31;;;;;;;15.38;13.10;;;;;;;28.73;53.00;99685.98;1775417;79;21061;-73
2022/08/15 09:32:24;;;;;;;15.05;13.55;;;;;;;28.75;52.75;99684.55;1799838;78;21831;-73
2022/08/15 09:35:13;;;;;;;13.72;12.33;;;;;;;28.68;52.51;99672.34;1767285;79;21097;-73
2022/08/15 09:37:54;;;;;;;13.58;11.68;;;;;;;28.56;52.16;99672.04;1796207;78;20974;-73
2022/08/15 09:40:55;;;;;;;14.63;12.00;;;;;;;28.70;52.02;99666.02;1815924;78;21048;-73
2022/08/15 09:44:00;;;;;;;14.55;12.93;;;;;;;28.79;51.89;99666.90;1766171;79;21049;-73
2022/08/15 09:46:43;;;;;;;17.85;12.05;;;;;;;28.69;51.51;99668.49;1819793;77;21776;-73
2022/08/15 09:49:15;;;;;;;18.32;13.18;;;;;;;28.91;51.65;99663.08;1783793;80;21538;-73
2022/08/15 09:52:27;;;;;;;15.90;12.53;;;;;;;29.01;51.21;99668.34;1786032;79;21848;-73
2022/08/15 09:55:00;;;;;;;15.10;12.35;;;;;;;29.03;51.16;99659.21;1800041;78;20981;-73
2022/08/15 09:57:37;;;;;;;13.68;12.28;;;;;;;29.15;50.94;99651.25;1762997;79;21581;-73
2022/08/15 10:00:17;;;;;;;12.47;11.12;;;;;;;29.20;50.86;99648.38;1799377;78;21861;-73
2022/08/15 10:02:46;;;;;;;12.55;11.30;;;;;;;29.30;50.38;99643.80;1770260;78;21037;-74
2022/08/15 10:05:23;;;;;;;13.48;11.53;;;;;;;29.35;50.25;99643.66;1815182;78;20982;-73
2022/08/15 10:07:58;;;;;;;12.43;11.15;;;;;;;29.53;50.01;99637.98;1794144;78;21032;-73
2022/08/15 10:10:46;;;;;;;15.28;11.20;;;;;;;29.58;49.85;99638.43;1797558;78;20990;-73
2022/08/15 10:13:21;;;;;;;12.90;11.60;;;;;;;29.65;49.61;99637.42;1797536;78;21827;-73
2022/08/15 10:15:46;;;;;;;13.78;10.63;;;;;;;29.57;49.12;99629.92;1791977;78;20962;-73
2022/08/15 10:18:30;;;;;;;13.03;10.43;;;;;;;29.38;48.70;99621.09;1773800;79;20908;-73
2022/08/15 10:21:17;;;;;;;13.00;10.65;;;;;;;29.41;48.56;99618.52;1744987;81;21425;-73
2022/08/15 10:23:45;;;;;;;12.70;9.98;;;;;;;29.48;48.18;99624.39;1758059;80;21125;-73
2022/08/15 10:26:25;;;;;;;11.48;10.05;;;;;;;29.51;47.78;99614.70;1773080;80;22629;-72
2022/08/15 10:29:14;;;;;;;13.20;9.95;;;;;;;29.48;47.74;99621.64;1779863;80;21014;-72
2022/08/15 10:31:53;;;;;;;;;;;;;;;29.66;47.40;99618.44;1774783;80;21021;-73
2022/08/15 10:34:41;;;;;;;17.42;10.03;;;;;;;29.62;47.03;99606.45;1742850;81;20666;-77
2022/08/15 10:37:16;;;;;;;13.88;10.38;;;;;;;29.88;46.94;99606.03;1754102;81;20987;-78
2022/08/15 10:40:07;;;;;;;13.72;9.50;;;;;;;29.99;46.45;99607.38;1730148;81;22030;-77
2022/08/15 10:42:47;;;;;;;18.00;8.58;;;;;;;29.82;46.28;99605.90;1751318;81;21089;-77
2022/08/15 10:45:41;;;;;;;12.90;9.55;;;;;;;29.68;46.10;99595.55;1751562;81;21061;-78
2022/08/15 10:48:31;;;;;;;12.93;9.08;;;;;;;29.92;45.90;99600.15;1752906;81;20996;-77
2022/08/15 10:51:31;;;;;;;13.80;8.65;;;;;;;30.30;45.75;99588.62;1744796;81;20983;-77
2022/08/15 10:54:28;;;;;;;10.55;8.60;;;;;;;30.31;45.45;99593.81;1756906;81;21762;-78
2022/08/15 10:56:54;;;;;;;16.55;10.35;;;;;;;30.22;44.99;99583.36;1756450;81;21475;-77
2022/08/15 10:59:38;;;;;;;13.68;9.73;;;;;;;30.09;44.43;99587.84;1754684;80;21092;-77
2022/08/15 11:02:18;;;;;;;14.55;9.03;;;;;;;29.95;44.32;99587.70;1741418;81;21024;-77
2022/08/15 11:04:45;;;;;;;12.45;8.33;;;;;;;30.03;44.27;99585.55;1742440;81;20959;-77
2022/08/15 11:07:22;;;;;;;15.60;9.20;;;;;;;30.20;43.76;99582.30;1758597;81;21911;-77
2022/08/15 11:09:54;;;;;;;14.03;7.95;;;;;;;30.20;43.39;99577.35;1744870;80;21506;-77
2022/08/15 11:12:20;;;;;;;13.50;9.15;;;;;;;30.30;43.41;99574.86;1742566;81;21514;-78
2022/08/15 11:14:54;;;;;;;10.70;8.38;;;;;;;30.37;43.38;99579.33;1742525;81;20986;-78
2022/08/15 11:17:23;;;;;;;12.10;8.33;;;;;;;30.47;43.29;99581.24;1741355;81;21403;-78
2022/08/15 11:19:51;;;;;;;13.85;8.85;;;;;;;30.37;43.18;99580.70;1742793;81;21938;-77
2022/08/15 11:22:33;;;;;;;15.57;8.33;;;;;;;30.22;43.06;99571.77;1772527;79;21007;-77
2022/08/15 11:25:07;;;;;;;13.98;8.53;;;;;;;30.05;43.02;99580.53;1773521;79;21009;-77
2022/08/15 11:27:33;;;;;;;12.58;8.53;;;;;;;29.88;42.99;99579.91;1773865;79;21454;-77
2022/08/15 11:29:59;;;;;;;14.73;8.48;;;;;;;29.90;43.21;99578.23;1773977;79;20902;-77
2022/08/15 11:32:32;;;;;;;11.35;8.53;;;;;;;29.91;43.11;99571.61;1773791;79;22464;-77
2022/08/15 11:35:00;;;;;;;55.60;11.20;;;;;;;29.92;43.27;99574.59;1773642;80;20991;-77
2022/08/15 11:37:30;;;;;;;13.40;8.95;;;;;;;30.01;43.40;99572.11;1773652;79;21727;-77
2022/08/15 11:40:04;;;;;;;10.78;9.00;;;;;;;29.95;43.12;99572.57;1773833;79;21014;-78
2022/08/15 11:42:34;;;;;;;13.55;8.40;;;;;;;29.98;43.11;99571.96;1752003;79;21017;-77
2022/08/15 11:45:15;;;;;;;11.85;8.80;;;;;;;30.08;43.08;99566.95;1773263;80;21872;-77
2022/08/15 11:47:51;;;;;;;11.75;8.80;;;;;;;30.14;42.92;99566.25;1773505;79;21072;-77
2022/08/15 11:50:39;;;;;;;11.10;8.08;;;;;;;30.11;42.84;99564.97;1773159;79;21072;-77
2022/08/15 11:53:07;;;;;;;10.68;8.40;;;;;;;30.09;42.92;99563.64;1773770;79;20994;-77
2022/08/15 11:55:39;;;;;;;11.95;8.88;;;;;;;30.05;42.90;99562.09;1774120;79;21062;-77